createdAt,value
2022-10-30T00:01:02.938Z,25.17
2022-10-30T00:03:31.664Z,27.35
2022-10-30T00:06:00.274Z,29.92
2022-10-30T00:08:29.005Z,26.38
2022-10-30T00:10:57.225Z,26.85
2022-10-30T00:13:25.970Z,28.00
2022-10-30T00:15:55.611Z,21.30
2022-10-30T00:18:23.849Z,28.10
2022-10-30T00:20:52.117Z,26.60
2022-10-30T00:23:20.983Z,28.27
2022-10-30T00:25:49.243Z,28.92
2022-10-30T00:28:17.515Z,27.40
2022-10-30T00:30:45.711Z,28.38
2022-10-30T00:33:15.296Z,26.73
2022-10-30T00:35:49.856Z,22.80
2022-10-30T00:38:18.057Z,25.35
2022-10-30T00:40:46.337Z,28.95
2022-10-30T00:43:32.351Z,23.42
2022-10-30T00:46:03.788Z,26.08
2022-10-30T00:48:33.974Z,27.13
2022-10-30T00:51:04.023Z,32.15
2022-10-30T00:53:32.992Z,27.05
2022-10-30T00:56:03.720Z,25.77
2022-10-30T00:58:35.452Z,23.85
2022-10-30T01:01:12.708Z,30.75
2022-10-30T01:03:45.255Z,30.13
2022-10-30T01:06:17.864Z,24.65
2022-10-30T01:08:48.442Z,26.25
2022-10-30T01:11:16.839Z,22.60
2022-10-30T01:13:48.280Z,26.65
2022-10-30T01:16:39.406Z,25.95
2022-10-30T01:19:17.765Z,27.40
2022-10-30T01:21:56.421Z,23.77
2022-10-30T01:24:37.487Z,29.35
2022-10-30T01:27:18.635Z,24.48
2022-10-30T01:29:57.783Z,27.30
2022-10-30T01:32:41.934Z,23.08
2022-10-30T01:35:18.425Z,20.38
2022-10-30T01:37:53.254Z,29.63
2022-10-30T01:40:21.880Z,37.10
2022-10-30T01:42:52.461Z,23.73
2022-10-30T01:45:27.715Z,28.02
2022-10-30T01:48:15.125Z,27.77
2022-10-30T01:50:53.011Z,26.45
2022-10-30T01:53:31.895Z,23.52
2022-10-30T01:56:16.252Z,23.60
2022-10-30T01:58:51.911Z,24.85
2022-10-30T02:01:32.936Z,23.45
2022-10-30T02:06:36.961Z,30.02
2022-10-30T02:09:05.515Z,26.00
2022-10-30T02:11:35.250Z,26.50
2022-10-30T02:14:07.429Z,23.45
2022-10-30T02:16:39.910Z,23.30
2022-10-30T02:19:08.149Z,27.08
2022-10-30T02:21:37.599Z,25.77
2022-10-30T02:24:06.337Z,26.42
2022-10-30T02:26:34.672Z,26.15
2022-10-30T02:29:02.906Z,26.42
2022-10-30T02:31:31.321Z,27.88
2022-10-30T02:33:59.677Z,30.77
2022-10-30T02:36:27.995Z,23.33
2022-10-30T02:38:57.439Z,25.77
2022-10-30T02:41:26.077Z,26.98
2022-10-30T02:43:54.674Z,25.83
2022-10-30T02:46:23.214Z,27.95
2022-10-30T02:48:51.553Z,25.77
2022-10-30T02:51:19.679Z,28.58
2022-10-30T02:53:48.580Z,24.92
2022-10-30T02:56:18.854Z,27.48
2022-10-30T02:58:47.158Z,30.38
2022-10-30T03:01:17.289Z,30.65
2022-10-30T03:03:45.902Z,28.25
2022-10-30T03:06:16.512Z,26.83
2022-10-30T03:08:45.438Z,26.58
2022-10-30T03:11:15.293Z,27.33
2022-10-30T03:13:46.195Z,24.02
2022-10-30T03:16:16.201Z,28.70
2022-10-30T03:18:45.245Z,31.50
2022-10-30T03:21:15.334Z,27.10
2022-10-30T03:23:44.162Z,27.50
2022-10-30T03:26:12.734Z,27.40
2022-10-30T03:28:41.027Z,31.70
2022-10-30T03:31:13.745Z,28.73
2022-10-30T03:33:42.890Z,28.23
2022-10-30T03:36:13.476Z,24.27
2022-10-30T03:38:42.006Z,28.60
2022-10-30T03:41:10.796Z,27.88
2022-10-30T03:43:39.280Z,28.42
2022-10-30T03:46:07.444Z,26.65
2022-10-30T03:48:37.063Z,28.25
2022-10-30T03:51:05.622Z,33.72
2022-10-30T03:53:33.932Z,26.73
2022-10-30T03:56:04.650Z,29.40
2022-10-30T03:58:32.956Z,25.38
2022-10-30T04:01:06.035Z,26.75
2022-10-30T04:03:34.882Z,22.65
2022-10-30T04:06:04.839Z,26.97
2022-10-30T04:08:33.106Z,23.08
2022-10-30T04:11:01.676Z,30.88
2022-10-30T04:13:30.333Z,30.65
2022-10-30T04:15:58.645Z,23.52
2022-10-30T04:18:27.179Z,27.00
2022-10-30T04:20:55.639Z,25.70
2022-10-30T04:23:25.312Z,24.47
2022-10-30T04:25:53.545Z,29.45
2022-10-30T04:28:22.218Z,29.43
2022-10-30T04:30:50.435Z,32.47
2022-10-30T04:33:18.774Z,27.77
2022-10-30T04:35:47.026Z,28.00
2022-10-30T04:38:16.058Z,31.13
2022-10-30T04:40:45.937Z,30.42
2022-10-30T04:43:15.583Z,29.02
2022-10-30T04:45:44.052Z,28.80
2022-10-30T04:48:14.436Z,30.00
2022-10-30T04:50:43.658Z,25.13
2022-10-30T04:53:15.116Z,28.00
2022-10-30T04:55:44.219Z,24.60
2022-10-30T04:58:14.724Z,27.52
2022-10-30T05:00:46.872Z,24.65
2022-10-30T05:03:20.591Z,27.67
2022-10-30T05:05:57.763Z,27.27
2022-10-30T05:08:26.096Z,25.67
2022-10-30T05:10:54.917Z,30.27
2022-10-30T05:13:24.456Z,24.30
2022-10-30T05:15:54.761Z,27.97
2022-10-30T05:18:23.027Z,30.47
2022-10-30T05:20:51.455Z,28.03
2022-10-30T05:23:20.000Z,30.20
2022-10-30T05:25:48.379Z,28.70
2022-10-30T05:28:16.844Z,26.45
2022-10-30T05:30:46.346Z,32.00
2022-10-30T05:33:17.500Z,27.13
2022-10-30T05:35:45.761Z,28.65
2022-10-30T05:38:14.306Z,25.97
2022-10-30T05:40:42.868Z,25.27
2022-10-30T05:43:11.097Z,27.30
2022-10-30T05:45:39.189Z,25.23
2022-10-30T05:48:09.139Z,25.53
2022-10-30T05:50:37.435Z,25.37
2022-10-30T05:53:06.865Z,27.70
2022-10-30T05:55:36.475Z,25.33
2022-10-30T05:58:06.147Z,24.35
2022-10-30T06:00:35.945Z,26.17
2022-10-30T06:03:05.826Z,25.93
2022-10-30T06:05:36.494Z,28.00
2022-10-30T06:08:05.698Z,27.17
2022-10-30T06:10:39.141Z,31.70
2022-10-30T06:13:08.601Z,27.00
2022-10-30T06:15:36.881Z,23.73
2022-10-30T06:18:05.313Z,29.20
2022-10-30T06:20:33.617Z,28.77
2022-10-30T06:23:05.058Z,23.87
2022-10-30T06:25:40.420Z,27.50
2022-10-30T06:28:10.355Z,26.23
2022-10-30T06:30:38.984Z,26.17
2022-10-30T06:33:07.552Z,26.23
2022-10-30T06:35:35.832Z,32.00
2022-10-30T06:38:05.604Z,28.70
2022-10-30T06:40:34.494Z,26.43
2022-10-30T06:43:03.439Z,30.90
2022-10-30T06:45:31.802Z,28.17
2022-10-30T06:48:02.026Z,25.55
2022-10-30T06:50:30.873Z,29.73
2022-10-30T06:52:59.509Z,26.63
2022-10-30T06:55:29.199Z,25.60
2022-10-30T06:57:58.808Z,25.07
2022-10-30T07:00:27.404Z,30.00
2022-10-30T07:03:00.367Z,27.47
2022-10-30T07:05:31.752Z,34.23
2022-10-30T07:08:00.137Z,28.43
2022-10-30T07:10:29.708Z,26.80
2022-10-30T07:12:58.900Z,26.63
2022-10-30T07:15:27.817Z,29.73
2022-10-30T07:17:57.514Z,28.00
2022-10-30T07:20:27.435Z,27.67
2022-10-30T07:22:56.264Z,24.92
2022-10-30T07:25:24.668Z,31.33
2022-10-30T07:27:57.076Z,32.58
2022-10-30T07:33:02.331Z,25.10
2022-10-30T07:35:31.455Z,30.00
2022-10-30T07:38:04.201Z,27.83
2022-10-30T07:40:32.641Z,27.90
2022-10-30T07:43:03.556Z,29.10
2022-10-30T07:45:32.480Z,32.67
2022-10-30T07:48:01.260Z,31.90
2022-10-30T07:50:30.125Z,32.77
2022-10-30T07:52:58.519Z,31.53
2022-10-30T07:55:26.955Z,27.73
2022-10-30T07:57:55.702Z,27.70
2022-10-30T08:00:25.420Z,29.23
2022-10-30T08:02:57.746Z,31.42
2022-10-30T08:05:29.977Z,28.42
2022-10-30T08:07:59.452Z,26.97
2022-10-30T08:10:28.047Z,32.10
2022-10-30T08:12:56.671Z,24.10
2022-10-30T08:15:26.568Z,29.17
2022-10-30T08:17:54.994Z,23.98
2022-10-30T08:20:24.853Z,29.83
2022-10-30T08:22:54.274Z,23.23
2022-10-30T08:25:24.240Z,29.75
2022-10-30T08:27:54.997Z,25.83
2022-10-30T08:30:24.159Z,29.30
2022-10-30T08:32:53.786Z,26.67
2022-10-30T08:35:22.132Z,29.83
2022-10-30T08:37:52.422Z,27.13
2022-10-30T08:40:20.837Z,22.38
2022-10-30T08:42:52.779Z,18.65
2022-10-30T08:45:24.069Z,25.63
2022-10-30T08:48:04.263Z,23.50
2022-10-30T08:50:32.985Z,23.02
2022-10-30T08:53:03.291Z,25.85
2022-10-30T08:55:32.129Z,26.15
2022-10-30T08:58:00.930Z,27.80
2022-10-30T09:00:29.403Z,21.35
2022-10-30T09:02:58.157Z,25.42
2022-10-30T09:05:28.036Z,24.08
2022-10-30T09:07:58.952Z,23.48
2022-10-30T09:10:30.587Z,30.40
2022-10-30T09:12:59.529Z,22.42
2022-10-30T09:15:30.746Z,25.85
2022-10-30T09:18:02.174Z,20.52
2022-10-30T09:20:32.769Z,20.45
2022-10-30T09:23:08.047Z,21.00
2022-10-30T09:25:36.551Z,20.38
2022-10-30T09:28:04.974Z,18.33
2022-10-30T09:30:36.079Z,20.08
2022-10-30T09:33:05.073Z,19.02
2022-10-30T09:35:35.882Z,19.60
2022-10-30T09:38:04.208Z,17.40
2022-10-30T09:40:45.345Z,19.50
2022-10-30T09:43:24.900Z,21.90
2022-10-30T09:46:24.269Z,18.25
2022-10-30T09:49:14.224Z,26.60
2022-10-30T09:51:59.709Z,21.48
2022-10-30T09:54:40.414Z,20.13
2022-10-30T09:57:22.795Z,18.27
2022-10-30T10:00:02.462Z,20.77
2022-10-30T10:02:36.053Z,21.08
2022-10-30T10:05:15.247Z,20.20
2022-10-30T10:07:52.938Z,17.95
2022-10-30T10:10:30.534Z,19.45
2022-10-30T10:13:01.468Z,23.17
2022-10-30T10:15:38.292Z,21.35
2022-10-30T10:18:20.805Z,21.08
2022-10-30T10:20:51.499Z,17.75
2022-10-30T10:23:27.399Z,18.75
2022-10-30T10:25:58.939Z,16.40
2022-10-30T10:28:44.928Z,15.88
2022-10-30T10:31:28.500Z,19.00
2022-10-30T10:34:30.665Z,16.13
2022-10-30T10:37:07.084Z,13.68
2022-10-30T10:39:50.117Z,15.73
2022-10-30T10:42:28.098Z,15.18
2022-10-30T10:45:19.379Z,9.27
2022-10-30T10:48:08.048Z,11.70
2022-10-30T10:50:41.023Z,11.30
2022-10-30T10:53:16.818Z,13.50
2022-10-30T10:55:50.385Z,11.85
2022-10-30T10:58:27.297Z,14.13
2022-10-30T11:00:57.929Z,9.00
2022-10-30T11:03:33.590Z,11.80
2022-10-30T11:06:12.962Z,8.68
2022-10-30T11:08:41.137Z,7.95
2022-10-30T11:11:10.646Z,7.55
2022-10-30T11:13:40.763Z,7.90
2022-10-30T11:16:22.306Z,10.38
2022-10-30T11:18:55.819Z,7.03
2022-10-30T11:21:26.239Z,11.15
2022-10-30T11:23:54.862Z,9.60
2022-10-30T11:26:45.197Z,10.82
2022-10-30T11:29:15.572Z,9.98
2022-10-30T11:31:44.891Z,11.68
2022-10-30T11:34:25.505Z,11.98
2022-10-30T11:36:55.075Z,9.45
2022-10-30T11:39:25.158Z,10.95
2022-10-30T11:42:00.823Z,12.38
2022-10-30T11:44:33.241Z,11.52
2022-10-30T11:47:02.178Z,8.50
2022-10-30T11:49:37.567Z,12.15
2022-10-30T11:52:07.694Z,8.25
2022-10-30T11:54:39.992Z,12.05
2022-10-30T11:57:22.142Z,7.45
2022-10-30T11:59:51.965Z,15.07
2022-10-30T12:02:23.406Z,11.02
2022-10-30T12:04:52.916Z,9.93
2022-10-30T12:07:27.812Z,9.48
2022-10-30T12:10:03.387Z,13.00
2022-10-30T12:12:37.395Z,13.88
2022-10-30T12:15:21.547Z,11.48
2022-10-30T12:17:53.912Z,9.98
2022-10-30T12:20:22.602Z,9.77
2022-10-30T12:22:51.204Z,18.42
2022-10-30T12:25:24.857Z,10.32
2022-10-30T12:28:00.685Z,14.13
2022-10-30T12:30:32.179Z,11.77
2022-10-30T12:33:05.680Z,7.70
2022-10-30T12:35:42.039Z,5.53
2022-10-30T12:38:18.255Z,13.35
2022-10-30T12:40:57.257Z,8.80
2022-10-30T12:43:28.608Z,7.40
2022-10-30T12:46:00.825Z,8.32
2022-10-30T12:48:33.893Z,8.30
2022-10-30T12:51:15.944Z,5.40
2022-10-30T12:53:58.709Z,5.80
2022-10-30T12:56:31.431Z,6.60
2022-10-30T12:59:23.081Z,7.35
2022-10-30T13:01:57.028Z,6.75
2022-10-30T13:04:28.142Z,9.40
2022-10-30T13:07:04.774Z,8.88
2022-10-30T13:09:39.570Z,12.35
2022-10-30T13:12:11.762Z,4.45
2022-10-30T13:14:46.389Z,6.03
2022-10-30T13:17:15.620Z,6.30
2022-10-30T13:19:46.463Z,5.70
2022-10-30T13:22:20.527Z,4.38
2022-10-30T13:24:59.178Z,2.58
2022-10-30T13:27:41.281Z,3.00
2022-10-30T13:30:16.583Z,6.40
2022-10-30T13:33:02.982Z,7.70
2022-10-30T13:35:37.609Z,6.05
2022-10-30T13:38:26.043Z,6.63
2022-10-30T13:40:58.334Z,5.32
2022-10-30T13:43:38.728Z,10.30
2022-10-30T13:46:24.845Z,10.00
2022-10-30T13:49:09.800Z,5.93
2022-10-30T13:51:43.470Z,4.95
2022-10-30T13:54:18.929Z,3.80
2022-10-30T13:56:48.667Z,6.57
2022-10-30T13:59:37.934Z,7.05
2022-10-30T14:02:18.470Z,7.88
2022-10-30T14:04:54.899Z,9.38
2022-10-30T14:07:32.978Z,5.82
2022-10-30T14:10:08.692Z,7.07
2022-10-30T14:12:47.799Z,7.75
2022-10-30T14:15:33.357Z,4.95
2022-10-30T14:18:38.925Z,4.05
2022-10-30T14:21:35.428Z,5.07
2022-10-30T14:24:05.468Z,1.77
2022-10-30T14:26:33.763Z,6.05
2022-10-30T14:29:39.543Z,2.85
2022-10-30T14:32:42.302Z,4.10
2022-10-30T14:35:39.936Z,3.25
2022-10-30T14:38:27.492Z,5.70
2022-10-30T14:41:26.662Z,3.75
2022-10-30T14:44:11.884Z,9.57
2022-10-30T14:46:49.047Z,4.28
2022-10-30T14:49:46.914Z,2.38
2022-10-30T14:52:29.911Z,4.13
2022-10-30T14:55:18.504Z,5.60
2022-10-30T14:57:52.062Z,5.38
2022-10-30T15:00:38.080Z,3.30
2022-10-30T15:03:11.493Z,24.13
2022-10-30T15:05:52.428Z,33.20
2022-10-30T15:08:49.687Z,16.30
2022-10-30T15:11:45.826Z,2.72
2022-10-30T15:14:39.566Z,5.45
2022-10-30T15:17:20.950Z,2.03
2022-10-30T15:19:49.634Z,5.03
2022-10-30T15:22:21.214Z,4.75
2022-10-30T15:24:51.126Z,6.15
2022-10-30T15:27:23.569Z,8.77
2022-10-30T15:29:55.869Z,23.80
2022-10-30T15:32:25.329Z,11.02
2022-10-30T15:34:56.036Z,5.70
2022-10-30T15:37:24.705Z,5.78
2022-10-30T15:40:10.854Z,3.78
2022-10-30T15:42:41.221Z,2.70
2022-10-30T15:45:18.308Z,4.60
2022-10-30T15:47:49.317Z,5.50
2022-10-30T15:50:20.011Z,6.43
2022-10-30T15:52:48.546Z,4.60
2022-10-30T15:55:18.749Z,7.15
2022-10-30T15:58:06.883Z,4.07
2022-10-30T16:00:37.107Z,3.95
2022-10-30T16:03:07.538Z,5.65
2022-10-30T16:05:36.568Z,4.32
2022-10-30T16:08:10.921Z,3.72
2022-10-30T16:10:45.211Z,5.95
2022-10-30T16:13:18.998Z,3.33
2022-10-30T16:15:49.760Z,3.55
2022-10-30T16:18:22.218Z,3.45
2022-10-30T16:20:53.861Z,4.65
2022-10-30T16:23:22.844Z,5.38
2022-10-30T16:25:55.912Z,8.35
2022-10-30T16:28:28.282Z,5.05
2022-10-30T16:30:58.724Z,16.75
2022-10-30T16:33:29.224Z,17.70
2022-10-30T16:35:59.776Z,7.38
2022-10-30T16:38:31.233Z,3.95
2022-10-30T16:40:59.739Z,3.30
2022-10-30T16:43:32.307Z,5.32
2022-10-30T16:46:27.255Z,2.60
2022-10-30T16:48:59.437Z,3.38
2022-10-30T16:51:28.129Z,2.45
2022-10-30T16:53:56.624Z,5.72
2022-10-30T16:56:27.279Z,6.30
2022-10-30T16:59:06.552Z,4.63
2022-10-30T17:01:36.259Z,9.13
2022-10-30T17:04:06.203Z,2.67
2022-10-30T17:06:41.128Z,3.25
2022-10-30T17:09:21.376Z,3.05
2022-10-30T17:12:07.940Z,1.83
2022-10-30T17:14:47.497Z,5.07
2022-10-30T17:17:25.031Z,3.45
2022-10-30T17:19:58.356Z,6.50
2022-10-30T17:22:27.765Z,4.85
2022-10-30T17:24:56.431Z,9.63
2022-10-30T17:27:46.394Z,9.38
2022-10-30T17:30:39.034Z,3.40
2022-10-30T17:33:33.137Z,7.95
2022-10-30T17:36:01.383Z,4.32
2022-10-30T17:38:29.635Z,3.40
2022-10-30T17:40:58.075Z,2.70
2022-10-30T17:43:29.229Z,4.22
2022-10-30T17:45:59.005Z,4.85
2022-10-30T17:48:28.917Z,5.65
2022-10-30T17:50:57.447Z,5.18
2022-10-30T17:53:26.849Z,3.95
2022-10-30T17:56:00.307Z,5.43
2022-10-30T17:58:30.876Z,6.10
2022-10-30T18:01:00.842Z,6.90
2022-10-30T18:03:29.387Z,4.57
2022-10-30T18:05:58.715Z,4.47
2022-10-30T18:08:27.134Z,3.58
2022-10-30T18:10:55.429Z,6.07
2022-10-30T18:13:24.008Z,6.07
2022-10-30T18:15:56.397Z,6.25
2022-10-30T18:18:25.957Z,9.37
2022-10-30T18:20:54.266Z,4.95
2022-10-30T18:23:50.800Z,5.75
2022-10-30T18:26:15.810Z,7.72
2022-10-30T18:28:44.063Z,5.90
2022-10-30T18:31:13.895Z,4.85
2022-10-30T18:33:43.834Z,6.15
2022-10-30T18:36:13.886Z,9.70
2022-10-30T18:38:42.391Z,8.43
2022-10-30T18:41:15.861Z,7.20
2022-10-30T18:43:46.911Z,6.07
2022-10-30T18:46:16.920Z,3.15
2022-10-30T18:48:46.696Z,3.80
2022-10-30T18:51:18.556Z,5.78
2022-10-30T18:53:51.798Z,5.33
2022-10-30T18:56:21.014Z,6.20
2022-10-30T18:58:49.428Z,5.32
2022-10-30T19:01:18.572Z,5.20
2022-10-30T19:03:49.051Z,6.57
2022-10-30T19:06:19.107Z,9.68
2022-10-30T19:08:47.595Z,11.02
2022-10-30T19:11:20.116Z,8.13
2022-10-30T19:13:52.759Z,10.23
2022-10-30T19:16:22.192Z,8.07
2022-10-30T19:18:51.738Z,7.70
2022-10-30T19:21:21.419Z,8.37
2022-10-30T19:23:50.905Z,6.17
2022-10-30T19:26:19.498Z,7.73
2022-10-30T19:28:47.934Z,6.88
2022-10-30T19:31:17.640Z,4.73
2022-10-30T19:33:46.156Z,4.73
2022-10-30T19:36:29.385Z,4.17
2022-10-30T19:38:57.801Z,3.83
2022-10-30T19:41:26.210Z,3.00
2022-10-30T19:43:54.766Z,3.70
2022-10-30T19:46:23.592Z,6.30
2022-10-30T19:49:00.197Z,5.27
2022-10-30T19:51:30.250Z,7.40
2022-10-30T19:53:58.710Z,12.43
2022-10-30T19:56:27.081Z,10.00
2022-10-30T19:58:55.238Z,8.60
2022-10-30T20:01:23.601Z,6.43
2022-10-30T20:03:52.158Z,7.53
2022-10-30T20:06:21.497Z,7.30
2022-10-30T20:08:51.164Z,6.67
2022-10-30T20:11:19.471Z,6.27
2022-10-30T20:13:50.667Z,7.70
2022-10-30T20:16:22.095Z,9.40
2022-10-30T20:18:50.896Z,11.93
2022-10-30T20:21:20.950Z,12.40
2022-10-30T20:23:51.052Z,12.97
2022-10-30T20:26:25.151Z,12.10
2022-10-30T20:28:53.984Z,11.87
2022-10-30T20:31:22.383Z,12.93
2022-10-30T20:33:50.795Z,20.87
2022-10-30T20:36:19.201Z,17.73
2022-10-30T20:38:47.632Z,20.07
2022-10-30T20:41:22.984Z,16.10
2022-10-30T20:43:52.258Z,17.80
2022-10-30T20:46:20.912Z,16.07
2022-10-30T20:48:49.363Z,19.13
2022-10-30T20:51:17.753Z,24.00
2022-10-30T20:53:46.312Z,26.43
2022-10-30T20:56:14.734Z,23.27
2022-10-30T20:58:44.181Z,16.03
2022-10-30T21:01:13.664Z,11.33
2022-10-30T21:03:41.962Z,7.33
2022-10-30T21:06:10.172Z,6.87
2022-10-30T21:08:38.854Z,7.60
2022-10-30T21:11:08.232Z,6.40
2022-10-30T21:13:37.608Z,7.37
2022-10-30T21:16:09.726Z,6.20
2022-10-30T21:18:38.123Z,8.00
2022-10-30T21:21:08.469Z,7.20
2022-10-30T21:23:37.137Z,9.83
2022-10-30T21:26:09.668Z,7.27
2022-10-30T21:28:37.892Z,6.27
2022-10-30T21:31:10.171Z,7.70
2022-10-30T21:33:39.270Z,8.13
2022-10-30T21:36:12.644Z,5.23
2022-10-30T21:38:43.024Z,5.47
2022-10-30T21:41:12.980Z,7.87
2022-10-30T21:43:41.256Z,7.00
2022-10-30T21:46:12.812Z,7.13
2022-10-30T21:48:41.279Z,5.67
2022-10-30T21:51:11.950Z,7.50
2022-10-30T21:53:40.520Z,6.40
2022-10-30T21:56:10.583Z,5.97
2022-10-30T21:58:39.130Z,6.20
2022-10-30T22:01:07.772Z,8.53
2022-10-30T22:03:37.642Z,7.10
2022-10-30T22:06:09.989Z,5.87
2022-10-30T22:08:38.711Z,6.87
2022-10-30T22:11:08.233Z,8.37
2022-10-30T22:13:37.131Z,6.23
2022-10-30T22:16:06.635Z,8.60
2022-10-30T22:18:36.723Z,6.43
2022-10-30T22:21:07.152Z,6.30
2022-10-30T22:23:36.524Z,7.47
2022-10-30T22:26:05.993Z,6.40
2022-10-30T22:28:35.733Z,9.17
2022-10-30T22:31:05.453Z,8.23
2022-10-30T22:33:34.390Z,7.10
2022-10-30T22:36:09.118Z,7.27
2022-10-30T22:38:37.400Z,8.70
2022-10-30T22:41:09.699Z,8.47
2022-10-30T22:43:38.464Z,7.57
2022-10-30T22:46:06.902Z,8.30
2022-10-30T22:48:35.428Z,6.90
2022-10-30T22:51:05.116Z,7.63
2022-10-30T22:53:35.070Z,6.70
2022-10-30T22:56:13.105Z,8.47
2022-10-30T22:58:41.333Z,10.57
2022-10-30T23:01:11.373Z,8.53
2022-10-30T23:03:39.728Z,8.67
2022-10-30T23:06:08.683Z,6.97
2022-10-30T23:08:38.609Z,7.33
2022-10-30T23:11:07.282Z,7.83
2022-10-30T23:13:36.986Z,9.33
2022-10-30T23:16:07.203Z,10.13
2022-10-30T23:18:36.161Z,9.87
2022-10-30T23:21:06.366Z,8.70
2022-10-30T23:23:38.279Z,10.03
2022-10-30T23:26:08.866Z,10.20
2022-10-30T23:28:37.253Z,7.90
2022-10-30T23:31:06.233Z,11.17
2022-10-30T23:33:34.915Z,11.20
2022-10-30T23:36:03.998Z,10.40
2022-10-30T23:38:32.482Z,10.27
2022-10-30T23:41:02.037Z,12.20
2022-10-30T23:43:30.327Z,10.53
2022-10-30T23:45:58.641Z,8.80
2022-10-30T23:48:27.102Z,13.33
2022-10-30T23:50:55.375Z,10.57
2022-10-30T23:53:23.493Z,10.80
2022-10-30T23:55:52.496Z,12.87
2022-10-30T23:58:22.462Z,12.20
